首页
METAR-TAF:

METAR-TAF

机场 :

Rosecrans Memorial Airport

Saint Joseph, 密蘇里州, 美国

纬度: 39-46-05N, 经度: 094-54-33W, 海拔: 251米

当前天气观测

该预报发布于31分钟前的19:53 UTC
静风
温度 0°C
湿度 74%
气压 1022 hPa
能見度: 14.5公里
多云层高于1600英尺
阴天层高于4900英尺

METAR: KSTJ 291953Z 00000KT 9SM BKN016 OVC049 00/M04 A3017 RMK AO2 SLP226 T00001039

时间: 14:24 (20:24 UTC)

预报

该预报发布于3小时和1分钟前的17:23 UTC
预报有效从29日的 18点(UTC)到 30日的 18点(UTC)
风速5节,风向东北
能見度: 10公里
阴天层高于1000英尺
短暂存在
从 29日的 18点(UTC)到 29日的 22点(UTC)
阴天层高于1300英尺
从 30日的 0200点(UTC)
风速3节,风向多变
能見度: 9.7公里
阴天层高于800英尺
轻雾
从 30日的 0700点(UTC)
风速3节,风向东南
能見度: 4.8公里
阴天层高于500英尺
轻雾
从 30日的 1600点(UTC)
风速7节,风向
能見度: 9.7公里
阴天层高于900英尺
轻雾

TAF: KSTJ 291723Z 2918/3018 04005KT P6SM OVC010 TEMPO 2918/2922 OVC013 FM300200 VRB03KT 6SM BR OVC008 FM300700 14003KT 3SM BR OVC005 FM301600 17007KT 6SM BR OVC009

超过4000个机场的气象观测和天气预报(METAR&TAF报告)。

可查询的气象台以黄色和红色小点在地图上表示。

将鼠标移到小点上方,可查看气象台名称。

然后点击查看天气观测和预报。

如需切换地图:点击带黑十字的绿色按钮放大地图;点击带横线的绿色按钮缩小地图;或者点击绿色箭头查看邻近地区的地图。


METAR-TAF: